sensor_id;sensor_type;location;lat;lon;timestamp;pressure;altitude;pressure_sealevel;temperature;humidity
50592;BME280;36548;50.506;30.834;2023-02-19T00:00:08;98789.20;;;6.18;55.75
50592;BME280;36548;50.506;30.834;2023-02-19T00:01:26;98780.26;;;6.19;55.91
50592;BME280;36548;50.506;30.834;2023-02-19T00:02:35;98782.08;;;6.18;55.67
50592;BME280;36548;50.506;30.834;2023-02-19T00:03:53;98786.66;;;6.29;55.79
50592;BME280;36548;50.506;30.834;2023-02-19T00:05:03;98783.48;;;6.11;55.70
50592;BME280;36548;50.506;30.834;2023-02-19T00:06:13;98786.33;;;6.08;55.94
50592;BME280;36548;50.506;30.834;2023-02-19T00:07:22;98788.80;;;6.11;56.07
50592;BME280;36548;50.506;30.834;2023-02-19T00:08:33;98790.81;;;6.07;56.00
50592;BME280;36548;50.506;30.834;2023-02-19T00:09:43;98791.58;;;6.09;56.13
50592;BME280;36548;50.506;30.834;2023-02-19T00:10:53;98790.70;;;6.09;55.96
50592;BME280;36548;50.506;30.834;2023-02-19T00:12:08;98783.03;;;6.17;55.94
50592;BME280;36548;50.506;30.834;2023-02-19T00:13:16;98786.55;;;6.05;55.91
50592;BME280;36548;50.506;30.834;2023-02-19T00:14:32;98780.59;;;6.14;56.07
50592;BME280;36548;50.506;30.834;2023-02-19T00:15:41;98781.44;;;6.02;56.17
50592;BME280;36548;50.506;30.834;2023-02-19T00:16:50;98781.55;;;6.00;56.09
50592;BME280;36548;50.506;30.834;2023-02-19T00:17:58;98781.44;;;6.02;56.23
50592;BME280;36548;50.506;30.834;2023-02-19T00:20:27;98778.14;;;6.11;56.31
50592;BME280;36548;50.506;30.834;2023-02-19T00:21:36;98782.28;;;6.02;56.26
50592;BME280;36548;50.506;30.834;2023-02-19T00:22:51;98770.27;;;6.09;56.08
50592;BME280;36548;50.506;30.834;2023-02-19T00:24:03;98779.84;;;5.99;56.10
50592;BME280;36548;50.506;30.834;2023-02-19T00:25:13;98780.79;;;5.98;56.03
50592;BME280;36548;50.506;30.834;2023-02-19T00:26:28;98769.06;;;6.13;56.30
50592;BME280;36548;50.506;30.834;2023-02-19T00:27:37;98784.11;;;6.02;55.94
50592;BME280;36548;50.506;30.834;2023-02-19T00:28:49;98772.61;;;6.01;55.90
50592;BME280;36548;50.506;30.834;2023-02-19T00:29:59;98771.73;;;6.01;55.92
50592;BME280;36548;50.506;30.834;2023-02-19T00:32:33;98774.61;;;6.10;56.09
50592;BME280;36548;50.506;30.834;2023-02-19T00:33:42;98781.73;;;5.97;55.95
50592;BME280;36548;50.506;30.834;2023-02-19T00:34:50;98775.76;;;5.93;55.97
50592;BME280;36548;50.506;30.834;2023-02-19T00:36:04;98777.58;;;5.93;56.05
50592;BME280;36548;50.506;30.834;2023-02-19T00:37:13;98775.76;;;5.93;56.13
50592;BME280;36548;50.506;30.834;2023-02-19T00:38:30;98773.45;;;6.02;56.15
50592;BME280;36548;50.506;30.834;2023-02-19T00:39:39;98776.93;;;5.89;56.31
50592;BME280;36548;50.506;30.834;2023-02-19T00:40:49;98776.09;;;5.89;56.32
50592;BME280;36548;50.506;30.834;2023-02-19T00:42:05;98772.69;;;6.00;56.18
50592;BME280;36548;50.506;30.834;2023-02-19T00:43:14;98781.41;;;5.89;56.35
50592;BME280;36548;50.506;30.834;2023-02-19T00:44:24;98779.59;;;5.89;56.32
50592;BME280;36548;50.506;30.834;2023-02-19T00:45:33;98786.09;;;5.85;56.43
50592;BME280;36548;50.506;30.834;2023-02-19T00:46:44;98778.94;;;5.86;56.39
50592;BME280;36548;50.506;30.834;2023-02-19T00:47:53;98779.05;;;5.84;56.34
50592;BME280;36548;50.506;30.834;2023-02-19T00:49:03;98782.58;;;5.85;56.44
50592;BME280;36548;50.506;30.834;2023-02-19T00:50:19;98781.92;;;5.94;56.27
50592;BME280;36548;50.506;30.834;2023-02-19T00:51:30;98789.48;;;5.74;56.58
50592;BME280;36548;50.506;30.834;2023-02-19T00:52:39;98780.32;;;5.78;56.59
50592;BME280;36548;50.506;30.834;2023-02-19T00:53:54;98772.44;;;5.90;56.61
50592;BME280;36548;50.506;30.834;2023-02-19T00:55:04;98784.37;;;5.71;56.39
50592;BME280;36548;50.506;30.834;2023-02-19T00:56:19;98779.59;;;5.89;56.63
50592;BME280;36548;50.506;30.834;2023-02-19T00:57:29;98785.35;;;5.83;56.55
50592;BME280;36548;50.506;30.834;2023-02-19T00:58:39;98790.46;;;5.86;56.49
50592;BME280;36548;50.506;30.834;2023-02-19T00:59:49;98788.02;;;5.83;56.19
50592;BME280;36548;50.506;30.834;2023-02-19T01:00:58;98785.24;;;5.85;56.26
50592;BME280;36548;50.506;30.834;2023-02-19T01:02:08;98781.59;;;5.86;56.26
50592;BME280;36548;50.506;30.834;2023-02-19T01:03:17;98788.20;;;5.80;56.06
50592;BME280;36548;50.506;30.834;2023-02-19T01:04:27;98796.00;;;5.83;56.20
50592;BME280;36548;50.506;30.834;2023-02-19T01:05:42;98794.52;;;5.92;56.13
50592;BME280;36548;50.506;30.834;2023-02-19T01:06:52;98801.33;;;5.83;56.27
50592;BME280;36548;50.506;30.834;2023-02-19T01:08:07;98793.12;;;5.86;56.42
50592;BME280;36548;50.506;30.834;2023-02-19T01:09:16;98801.62;;;5.78;56.55
50592;BME280;36548;50.506;30.834;2023-02-19T01:10:31;98799.00;;;5.91;56.39
50592;BME280;36548;50.506;30.834;2023-02-19T01:11:40;98806.84;;;5.80;56.39
50592;BME280;36548;50.506;30.834;2023-02-19T01:12:50;98799.72;;;5.80;56.32
50592;BME280;36548;50.506;30.834;2023-02-19T01:14:00;98805.78;;;5.83;56.53
50592;BME280;36548;50.506;30.834;2023-02-19T01:15:10;98800.23;;;5.86;56.54
50592;BME280;36548;50.506;30.834;2023-02-19T01:16:21;98800.56;;;5.81;56.29
50592;BME280;36548;50.506;30.834;2023-02-19T01:17:35;98804.07;;;5.81;56.30
50592;BME280;36548;50.506;30.834;2023-02-19T01:18:45;98806.73;;;5.81;56.36
50592;BME280;36548;50.506;30.834;2023-02-19T01:20:01;98810.27;;;5.82;56.59
50592;BME280;36548;50.506;30.834;2023-02-19T01:21:13;98803.84;;;5.72;56.69
50592;BME280;36548;50.506;30.834;2023-02-19T01:22:30;98807.06;;;5.77;56.75
50592;BME280;36548;50.506;30.834;2023-02-19T01:23:39;98806.94;;;5.66;56.72
50592;BME280;36548;50.506;30.834;2023-02-19T01:24:49;98804.27;;;5.66;56.89
50592;BME280;36548;50.506;30.834;2023-02-19T01:25:58;98807.77;;;5.66;56.84
50592;BME280;36548;50.506;30.834;2023-02-19T01:27:07;98812.81;;;5.71;56.90
50592;BME280;36548;50.506;30.834;2023-02-19T01:28:17;98816.20;;;5.73;56.69
50592;BME280;36548;50.506;30.834;2023-02-19T01:29:26;98808.98;;;5.75;56.72
50592;BME280;36548;50.506;30.834;2023-02-19T01:30:36;98804.72;;;5.72;56.61
50592;BME280;36548;50.506;30.834;2023-02-19T01:31:47;98810.66;;;5.63;56.57
50592;BME280;36548;50.506;30.834;2023-02-19T01:33:04;98799.83;;;5.79;56.88
50592;BME280;36548;50.506;30.834;2023-02-19T01:34:14;98809.38;;;5.69;56.62
50592;BME280;36548;50.506;30.834;2023-02-19T01:35:49;98801.62;;;5.78;56.74
50592;BME280;36548;50.506;30.834;2023-02-19T01:36:58;98818.14;;;5.71;56.90
50592;BME280;36548;50.506;30.834;2023-02-19T01:38:07;98817.27;;;5.70;56.54
50592;BME280;36548;50.506;30.834;2023-02-19T01:39:17;98810.04;;;5.72;56.72
50592;BME280;36548;50.506;30.834;2023-02-19T01:40:34;98810.27;;;5.82;56.45
50592;BME280;36548;50.506;30.834;2023-02-19T01:41:43;98811.94;;;5.70;56.50
50592;BME280;36548;50.506;30.834;2023-02-19T01:42:54;98819.81;;;5.72;56.44
50592;BME280;36548;50.506;30.834;2023-02-19T01:48:08;98815.26;;;5.74;56.63
50592;BME280;36548;50.506;30.834;2023-02-19T01:49:24;98812.69;;;5.59;56.82
50592;BME280;36548;50.506;30.834;2023-02-19T01:53:23;98831.95;;;5.63;56.72
50592;BME280;36548;50.506;30.834;2023-02-19T01:54:35;98818.08;;;5.58;56.70
50592;BME280;36548;50.506;30.834;2023-02-19T01:55:47;98822.36;;;5.60;56.83
50592;BME280;36548;50.506;30.834;2023-02-19T01:57:01;98824.88;;;5.49;56.90
50592;BME280;36548;50.506;30.834;2023-02-19T01:58:13;98821.06;;;5.53;56.98
50592;BME280;36548;50.506;30.834;2023-02-19T01:59:25;98812.52;;;5.48;57.16
50592;BME280;36548;50.506;30.834;2023-02-19T02:00:40;98821.30;;;5.63;57.09
50592;BME280;36548;50.506;30.834;2023-02-19T02:01:49;98825.73;;;5.50;56.97
50592;BME280;36548;50.506;30.834;2023-02-19T02:03:00;98823.62;;;5.55;57.22
50592;BME280;36548;50.506;30.834;2023-02-19T02:04:11;98830.55;;;5.57;56.99
50592;BME280;36548;50.506;30.834;2023-02-19T02:07:02;98824.56;;;5.54;57.05
50592;BME280;36548;50.506;30.834;2023-02-19T02:08:15;98824.28;;;5.58;57.15
50592;BME280;36548;50.506;30.834;2023-02-19T02:09:45;98828.55;;;5.61;57.11
50592;BME280;36548;50.506;30.834;2023-02-19T02:11:13;98826.41;;;5.66;57.07
50592;BME280;36548;50.506;30.834;2023-02-19T02:12:23;98838.88;;;5.66;56.79
50592;BME280;36548;50.506;30.834;2023-02-19T02:13:33;98840.59;;;5.67;56.80
50592;BME280;36548;50.506;30.834;2023-02-19T02:14:46;98841.55;;;5.66;56.72
50592;BME280;36548;50.506;30.834;2023-02-19T02:17:33;98838.17;;;5.76;56.84
50592;BME280;36548;50.506;30.834;2023-02-19T02:23:38;98856.67;;;5.65;56.80
50592;BME280;36548;50.506;30.834;2023-02-19T02:28:15;98855.28;;;5.59;57.17
50592;BME280;36548;50.506;30.834;2023-02-19T02:31:16;98856.96;;;5.60;57.16
50592;BME280;36548;50.506;30.834;2023-02-19T02:35:41;98866.66;;;5.61;57.38
50592;BME280;36548;50.506;30.834;2023-02-19T02:36:51;98859.09;;;5.55;57.35
50592;BME280;36548;50.506;30.834;2023-02-19T02:38:10;98859.84;;;5.57;57.36
50592;BME280;36548;50.506;30.834;2023-02-19T02:39:24;98859.38;;;5.51;57.35
50592;BME280;36548;50.506;30.834;2023-02-19T02:40:43;98860.28;;;5.64;57.30
50592;BME280;36548;50.506;30.834;2023-02-19T02:41:56;98870.13;;;5.49;57.17
50592;BME280;36548;50.506;30.834;2023-02-19T02:43:24;98876.96;;;5.53;57.16
50592;BME280;36548;50.506;30.834;2023-02-19T02:44:36;98870.23;;;5.48;57.37
50592;BME280;36548;50.506;30.834;2023-02-19T02:45:52;98869.53;;;5.58;57.56
50592;BME280;36548;50.506;30.834;2023-02-19T02:47:05;98872.58;;;5.52;57.62
50592;BME280;36548;50.506;30.834;2023-02-19T02:48:27;98875.91;;;5.56;57.47
50592;BME280;36548;50.506;30.834;2023-02-19T02:49:43;98870.94;;;5.64;57.26
50592;BME280;36548;50.506;30.834;2023-02-19T02:51:18;98879.41;;;5.56;57.38
50592;BME280;36548;50.506;30.834;2023-02-19T02:52:36;98883.79;;;5.57;57.26
50592;BME280;36548;50.506;30.834;2023-02-19T02:54:17;98876.86;;;5.55;57.15
50592;BME280;36548;50.506;30.834;2023-02-19T02:55:40;98881.83;;;5.46;57.35
50592;BME280;36548;50.506;30.834;2023-02-19T02:56:51;98872.34;;;5.42;57.64
50592;BME280;36548;50.506;30.834;2023-02-19T02:58:03;98880.88;;;5.48;57.61
50592;BME280;36548;50.506;30.834;2023-02-19T02:59:17;98880.78;;;5.49;57.50
50592;BME280;36548;50.506;30.834;2023-02-19T03:00:33;98873.81;;;5.61;57.52
50592;BME280;36548;50.506;30.834;2023-02-19T03:02:11;98879.73;;;5.52;57.46
50592;BME280;36548;50.506;30.834;2023-02-19T03:03:25;98884.39;;;5.48;57.46
50592;BME280;36548;50.506;30.834;2023-02-19T03:06:40;98889.22;;;5.56;57.48
50592;BME280;36548;50.506;30.834;2023-02-19T03:08:09;98901.13;;;5.50;57.61
50592;BME280;36548;50.506;30.834;2023-02-19T03:09:26;98897.80;;;5.46;57.41
50592;BME280;36548;50.506;30.834;2023-02-19T03:11:02;98896.75;;;5.49;57.54
50592;BME280;36548;50.506;30.834;2023-02-19T03:12:18;98895.70;;;5.52;57.68
50592;BME280;36548;50.506;30.834;2023-02-19T03:13:50;98900.67;;;5.43;57.69
50592;BME280;36548;50.506;30.834;2023-02-19T03:15:19;98913.13;;;5.43;57.63
50592;BME280;36548;50.506;30.834;2023-02-19T03:16:50;98915.02;;;5.41;57.81
50592;BME280;36548;50.506;30.834;2023-02-19T03:18:22;98907.60;;;5.46;57.93
50592;BME280;36548;50.506;30.834;2023-02-19T03:19:55;98908.09;;;5.38;57.93
50592;BME280;36548;50.506;30.834;2023-02-19T03:21:06;98909.06;;;5.37;57.87
50592;BME280;36548;50.506;30.834;2023-02-19T03:22:21;98914.28;;;5.39;57.96
50592;BME280;36548;50.506;30.834;2023-02-19T03:23:31;98901.77;;;5.26;58.00
50592;BME280;36548;50.506;30.834;2023-02-19T03:26:32;98912.77;;;5.35;58.08
50592;BME280;36548;50.506;30.834;2023-02-19T03:27:44;98910.21;;;5.33;57.98
50592;BME280;36548;50.506;30.834;2023-02-19T03:28:55;98905.06;;;5.30;58.17
50592;BME280;36548;50.506;30.834;2023-02-19T03:30:32;98907.72;;;5.30;58.25
50592;BME280;36548;50.506;30.834;2023-02-19T03:32:03;98910.11;;;5.35;58.33
50592;BME280;36548;50.506;30.834;2023-02-19T03:33:15;98912.61;;;5.23;58.44
50592;BME280;36548;50.506;30.834;2023-02-19T03:34:29;98913.35;;;5.25;58.54
50592;BME280;36548;50.506;30.834;2023-02-19T03:35:50;98914.66;;;5.33;58.52
50592;BME280;36548;50.506;30.834;2023-02-19T03:37:05;98923.42;;;5.20;58.66
50592;BME280;36548;50.506;30.834;2023-02-19T03:39:53;98919.34;;;5.15;59.02
50592;BME280;36548;50.506;30.834;2023-02-19T03:41:06;98907.87;;;5.14;59.03
50592;BME280;36548;50.506;30.834;2023-02-19T03:42:45;98907.66;;;5.17;59.20
50592;BME280;36548;50.506;30.834;2023-02-19T03:44:08;98918.87;;;5.08;59.32
50592;BME280;36548;50.506;30.834;2023-02-19T03:48:37;98933.59;;;5.13;59.14
50592;BME280;36548;50.506;30.834;2023-02-19T03:57:04;98937.77;;;5.18;59.31
50592;BME280;36548;50.506;30.834;2023-02-19T03:59:47;98936.92;;;5.17;59.13
50592;BME280;36548;50.506;30.834;2023-02-19T04:01:07;98946.62;;;5.04;58.87
50592;BME280;36548;50.506;30.834;2023-02-19T04:02:31;98940.26;;;5.06;58.95
50592;BME280;36548;50.506;30.834;2023-02-19T04:05:13;98938.47;;;5.07;58.76
50592;BME280;36548;50.506;30.834;2023-02-19T04:06:27;98945.58;;;5.06;58.58
50592;BME280;36548;50.506;30.834;2023-02-19T04:07:49;98947.56;;;5.17;58.62
50592;BME280;36548;50.506;30.834;2023-02-19T04:09:04;98949.95;;;5.07;58.69
50592;BME280;36548;50.506;30.834;2023-02-19T04:10:16;98941.03;;;5.08;58.62
50592;BME280;36548;50.506;30.834;2023-02-19T04:11:38;98938.64;;;5.18;58.49
50592;BME280;36548;50.506;30.834;2023-02-19T04:13:01;98949.95;;;5.07;58.52
50592;BME280;36548;50.506;30.834;2023-02-19T04:14:27;98934.27;;;5.17;58.61
50592;BME280;36548;50.506;30.834;2023-02-19T04:15:39;98941.30;;;5.04;58.57
50592;BME280;36548;50.506;30.834;2023-02-19T04:16:53;98938.64;;;5.04;58.77
50592;BME280;36548;50.506;30.834;2023-02-19T04:18:15;98944.23;;;5.13;58.83
50592;BME280;36548;50.506;30.834;2023-02-19T04:19:25;98944.56;;;4.94;58.96
50592;BME280;36548;50.506;30.834;2023-02-19T04:20:43;98944.56;;;4.94;59.04
50592;BME280;36548;50.506;30.834;2023-02-19T04:21:53;98935.80;;;4.92;59.21
50592;BME280;36548;50.506;30.834;2023-02-19T04:23:11;98940.66;;;5.00;59.45
50592;BME280;36548;50.506;30.834;2023-02-19T04:24:32;98946.54;;;4.91;59.46
50592;BME280;36548;50.506;30.834;2023-02-19T04:25:49;98948.44;;;5.03;59.50
50592;BME280;36548;50.506;30.834;2023-02-19T04:26:58;98950.44;;;4.85;59.58
50592;BME280;36548;50.506;30.834;2023-02-19T04:28:08;98938.95;;;4.85;59.80
50592;BME280;36548;50.506;30.834;2023-02-19T04:29:17;98944.08;;;4.88;59.92
50592;BME280;36548;50.506;30.834;2023-02-19T04:30:27;98946.84;;;4.86;59.83
50592;BME280;36548;50.506;30.834;2023-02-19T04:31:43;98941.70;;;4.98;59.93
50592;BME280;36548;50.506;30.834;2023-02-19T04:32:52;98945.80;;;4.89;59.93
50592;BME280;36548;50.506;30.834;2023-02-19T04:34:02;98943.04;;;4.90;59.88
50592;BME280;36548;50.506;30.834;2023-02-19T04:35:12;98947.41;;;4.91;59.78
50592;BME280;36548;50.506;30.834;2023-02-19T04:36:21;98947.41;;;4.91;59.60
50592;BME280;36548;50.506;30.834;2023-02-19T04:37:31;98956.23;;;4.92;59.86
50592;BME280;36548;50.506;30.834;2023-02-19T04:38:41;98957.95;;;4.93;59.72
50592;BME280;36548;50.506;30.834;2023-02-19T04:39:51;98964.86;;;4.95;59.94
50592;BME280;36548;50.506;30.834;2023-02-19T04:41:01;98961.36;;;4.95;59.55
50592;BME280;36548;50.506;30.834;2023-02-19T04:42:11;98961.45;;;4.93;59.53
50592;BME280;36548;50.506;30.834;2023-02-19T04:43:20;98963.44;;;4.90;59.61
50592;BME280;36548;50.506;30.834;2023-02-19T04:44:30;98958.12;;;4.90;59.68
50592;BME280;36548;50.506;30.834;2023-02-19T04:45:42;98966.77;;;4.93;59.87
50592;BME280;36548;50.506;30.834;2023-02-19T04:46:51;98967.72;;;4.92;59.53
50592;BME280;36548;50.506;30.834;2023-02-19T04:48:01;98971.34;;;4.91;59.62
50592;BME280;36548;50.506;30.834;2023-02-19T04:49:16;98975.59;;;4.94;59.60
50592;BME280;36548;50.506;30.834;2023-02-19T04:50:26;98978.06;;;4.83;59.86
50592;BME280;36548;50.506;30.834;2023-02-19T04:51:41;98980.07;;;4.93;59.77
50592;BME280;36548;50.506;30.834;2023-02-19T04:52:51;98979.39;;;4.75;59.89
50592;BME280;36548;50.506;30.834;2023-02-19T04:54:01;98974.92;;;4.76;60.10
50592;BME280;36548;50.506;30.834;2023-02-19T04:55:10;98981.56;;;4.69;60.01
50592;BME280;36548;50.506;30.834;2023-02-19T04:56:20;98985.94;;;4.70;60.13
50592;BME280;36548;50.506;30.834;2023-02-19T04:57:28;98983.97;;;4.73;60.03
50592;BME280;36548;50.506;30.834;2023-02-19T04:58:44;98985.39;;;4.79;60.03
50592;BME280;36548;50.506;30.834;2023-02-19T04:59:53;98988.89;;;4.65;59.83
50592;BME280;36548;50.506;30.834;2023-02-19T05:01:03;98990.48;;;4.68;59.94
50592;BME280;36548;50.506;30.834;2023-02-19T05:02:13;98992.10;;;4.70;59.80
50592;BME280;36548;50.506;30.834;2023-02-19T05:03:22;99001.05;;;4.69;59.60
50592;BME280;36548;50.506;30.834;2023-02-19T05:04:32;98996.08;;;4.63;59.56
50592;BME280;36548;50.506;30.834;2023-02-19T05:05:42;98987.82;;;4.68;59.72
50592;BME280;36548;50.506;30.834;2023-02-19T05:06:51;98990.41;;;4.69;59.58
50592;BME280;36548;50.506;30.834;2023-02-19T05:08:01;98994.86;;;4.69;59.21
50592;BME280;36548;50.506;30.834;2023-02-19T05:09:16;98994.41;;;4.76;59.33
50592;BME280;36548;50.506;30.834;2023-02-19T05:10:25;98997.80;;;4.64;59.36
50592;BME280;36548;50.506;30.834;2023-02-19T05:11:35;98990.48;;;4.68;59.44
50592;BME280;36548;50.506;30.834;2023-02-19T05:12:51;99004.84;;;4.80;59.23
50592;BME280;36548;50.506;30.834;2023-02-19T05:14:06;99002.58;;;4.73;59.37
50592;BME280;36548;50.506;30.834;2023-02-19T05:15:15;99005.48;;;4.69;59.30
50592;BME280;36548;50.506;30.834;2023-02-19T05:16:25;99010.45;;;4.75;59.59
50592;BME280;36548;50.506;30.834;2023-02-19T05:17:34;99015.38;;;4.81;59.65
50592;BME280;36548;50.506;30.834;2023-02-19T05:18:46;99013.12;;;4.89;59.66
50592;BME280;36548;50.506;30.834;2023-02-19T05:19:56;99018.44;;;4.89;59.19
50592;BME280;36548;50.506;30.834;2023-02-19T05:21:06;99029.07;;;5.04;59.73
50592;BME280;36548;50.506;30.834;2023-02-19T05:22:16;99027.17;;;5.20;59.61
50592;BME280;36548;50.506;30.834;2023-02-19T05:23:27;99023.19;;;5.42;59.40
50592;BME280;36548;50.506;30.834;2023-02-19T05:24:37;99032.77;;;5.59;58.58
50592;BME280;36548;50.506;30.834;2023-02-19T05:25:46;99023.05;;;5.72;58.25
50592;BME280;36548;50.506;30.834;2023-02-19T05:26:55;99028.78;;;5.93;58.00
50592;BME280;36548;50.506;30.834;2023-02-19T05:28:04;99031.42;;;6.08;56.92
50592;BME280;36548;50.506;30.834;2023-02-19T05:29:26;99031.60;;;6.19;56.66
50592;BME280;36548;50.506;30.834;2023-02-19T05:30:44;99021.33;;;6.53;56.79
50592;BME280;36548;50.506;30.834;2023-02-19T05:31:54;99021.67;;;6.61;56.09
50592;BME280;36548;50.506;30.834;2023-02-19T05:33:04;99022.77;;;6.85;55.38
50592;BME280;36548;50.506;30.834;2023-02-19T05:34:19;99021.06;;;7.22;54.90
50592;BME280;36548;50.506;30.834;2023-02-19T05:35:28;99021.15;;;7.33;54.25
50592;BME280;36548;50.506;30.834;2023-02-19T05:36:39;99028.59;;;7.54;53.96
50592;BME280;36548;50.506;30.834;2023-02-19T05:37:47;99027.60;;;7.68;53.76
50592;BME280;36548;50.506;30.834;2023-02-19T05:38:57;99022.45;;;7.78;53.27
50592;BME280;36548;50.506;30.834;2023-02-19T05:40:18;99021.78;;;8.11;51.85
50592;BME280;36548;50.506;30.834;2023-02-19T05:41:29;99020.70;;;8.14;51.37
50592;BME280;36548;50.506;30.834;2023-02-19T05:42:44;99022.47;;;8.50;51.08
50592;BME280;36548;50.506;30.834;2023-02-19T05:43:54;99017.75;;;8.54;51.02
50592;BME280;36548;50.506;30.834;2023-02-19T05:45:03;99020.81;;;8.61;50.06
50592;BME280;36548;50.506;30.834;2023-02-19T05:46:27;99015.89;;;8.90;50.17
50592;BME280;36548;50.506;30.834;2023-02-19T05:47:37;99017.12;;;8.97;49.66
50592;BME280;36548;50.506;30.834;2023-02-19T05:48:47;99024.20;;;9.21;48.55
50592;BME280;36548;50.506;30.834;2023-02-19T05:49:56;99024.58;;;9.39;47.52
50592;BME280;36548;50.506;30.834;2023-02-19T05:51:16;99023.59;;;9.63;46.84
50592;BME280;36548;50.506;30.834;2023-02-19T05:52:25;99026.97;;;9.87;48.24
50592;BME280;36548;50.506;30.834;2023-02-19T05:53:34;99030.20;;;10.14;45.52
50592;BME280;36548;50.506;30.834;2023-02-19T05:54:43;99034.80;;;10.34;45.73
50592;BME280;36548;50.506;30.834;2023-02-19T05:55:53;99035.30;;;10.61;45.55
50592;BME280;36548;50.506;30.834;2023-02-19T05:57:03;99034.91;;;10.86;45.07
50592;BME280;36548;50.506;30.834;2023-02-19T05:58:13;99031.72;;;10.93;43.13
50592;BME280;36548;50.506;30.834;2023-02-19T05:59:28;99028.28;;;11.12;44.15
50592;BME280;36548;50.506;30.834;2023-02-19T06:00:37;99030.31;;;10.77;43.26
50592;BME280;36548;50.506;30.834;2023-02-19T06:01:49;99032.83;;;10.69;44.08
50592;BME280;36548;50.506;30.834;2023-02-19T06:02:59;99036.98;;;10.62;44.73
50592;BME280;36548;50.506;30.834;2023-02-19T06:04:10;99039.98;;;10.47;43.74
50592;BME280;36548;50.506;30.834;2023-02-19T06:05:26;99036.67;;;10.55;43.98
50592;BME280;36548;50.506;30.834;2023-02-19T06:06:36;99040.76;;;10.27;43.37
50592;BME280;36548;50.506;30.834;2023-02-19T06:07:45;99037.58;;;10.33;44.46
50592;BME280;36548;50.506;30.834;2023-02-19T06:09:00;99049.09;;;10.56;44.26
50592;BME280;36548;50.506;30.834;2023-02-19T06:10:10;99049.16;;;10.33;44.04
50592;BME280;36548;50.506;30.834;2023-02-19T06:11:22;99049.55;;;10.17;43.55
50592;BME280;36548;50.506;30.834;2023-02-19T06:12:32;99047.22;;;10.24;44.21
50592;BME280;36548;50.506;30.834;2023-02-19T06:13:42;99052.75;;;10.11;44.10
50592;BME280;36548;50.506;30.834;2023-02-19T06:14:52;99041.28;;;10.09;44.16
50592;BME280;36548;50.506;30.834;2023-02-19T06:16:05;99038.50;;;10.11;43.99
50592;BME280;36548;50.506;30.834;2023-02-19T06:17:15;99049.51;;;9.85;44.51
50592;BME280;36548;50.506;30.834;2023-02-19T06:18:24;99050.70;;;9.92;44.41
50592;BME280;36548;50.506;30.834;2023-02-19T06:19:34;99052.45;;;9.82;44.31
50592;BME280;36548;50.506;30.834;2023-02-19T06:20:43;99050.63;;;9.71;44.81
50592;BME280;36548;50.506;30.834;2023-02-19T06:21:52;99056.34;;;9.78;45.47
50592;BME280;36548;50.506;30.834;2023-02-19T06:23:07;99053.64;;;9.89;45.01
50592;BME280;36548;50.506;30.834;2023-02-19T06:24:16;99051.23;;;9.75;44.98
50592;BME280;36548;50.506;30.834;2023-02-19T06:25:25;99052.56;;;9.58;45.06
50592;BME280;36548;50.506;30.834;2023-02-19T06:26:34;99043.95;;;9.43;45.22
50592;BME280;36548;50.506;30.834;2023-02-19T06:27:44;99053.91;;;9.41;45.74
50592;BME280;36548;50.506;30.834;2023-02-19T06:28:53;99052.32;;;9.27;45.16
50592;BME280;36548;50.506;30.834;2023-02-19T06:30:03;99054.20;;;8.91;45.72
50592;BME280;36548;50.506;30.834;2023-02-19T06:31:12;99055.92;;;8.92;46.24
50592;BME280;36548;50.506;30.834;2023-02-19T06:32:21;99047.64;;;8.95;46.39
50592;BME280;36548;50.506;30.834;2023-02-19T06:33:31;99045.81;;;8.95;46.38
50592;BME280;36548;50.506;30.834;2023-02-19T06:34:40;99041.31;;;8.84;46.14
50592;BME280;36548;50.506;30.834;2023-02-19T06:35:49;99047.86;;;8.80;46.40
50592;BME280;36548;50.506;30.834;2023-02-19T06:36:59;99051.20;;;8.60;46.54
50592;BME280;36548;50.506;30.834;2023-02-19T06:38:07;99045.97;;;8.58;46.97
50592;BME280;36548;50.506;30.834;2023-02-19T06:39:17;99049.66;;;8.44;47.01
50592;BME280;36548;50.506;30.834;2023-02-19T06:40:28;99039.40;;;8.38;47.28
50592;BME280;36548;50.506;30.834;2023-02-19T06:41:37;99041.79;;;8.30;47.24
50592;BME280;36548;50.506;30.834;2023-02-19T06:42:46;99044.81;;;8.25;47.64
50592;BME280;36548;50.506;30.834;2023-02-19T06:43:56;99043.10;;;8.24;47.77
50592;BME280;36548;50.506;30.834;2023-02-19T06:45:06;99039.06;;;8.18;47.75
50592;BME280;36548;50.506;30.834;2023-02-19T06:46:21;99033.89;;;8.28;47.94
50592;BME280;36548;50.506;30.834;2023-02-19T06:47:32;99037.47;;;8.16;47.75
50592;BME280;36548;50.506;30.834;2023-02-19T06:48:42;99036.34;;;8.07;47.85
50592;BME280;36548;50.506;30.834;2023-02-19T06:49:52;99036.16;;;7.97;48.10
50592;BME280;36548;50.506;30.834;2023-02-19T06:51:02;99037.88;;;7.98;48.58
50592;BME280;36548;50.506;30.834;2023-02-19T06:52:11;99048.57;;;7.98;48.36
50592;BME280;36548;50.506;30.834;2023-02-19T06:53:26;99040.44;;;8.00;48.31
50592;BME280;36548;50.506;30.834;2023-02-19T06:54:36;99036.88;;;7.75;48.85
50592;BME280;36548;50.506;30.834;2023-02-19T06:55:59;99033.52;;;7.47;49.23
50592;BME280;36548;50.506;30.834;2023-02-19T06:57:08;99041.61;;;7.59;49.68
50592;BME280;36548;50.506;30.834;2023-02-19T06:58:18;99036.16;;;7.60;49.32
50592;BME280;36548;50.506;30.834;2023-02-19T06:59:28;99037.11;;;7.59;49.37
50592;BME280;36548;50.506;30.834;2023-02-19T07:00:43;99040.20;;;7.66;49.51
50592;BME280;36548;50.506;30.834;2023-02-19T07:01:52;99040.45;;;7.50;49.56
50592;BME280;36548;50.506;30.834;2023-02-19T07:03:01;99046.33;;;7.42;50.05
50592;BME280;36548;50.506;30.834;2023-02-19T07:04:13;99034.81;;;7.42;50.25
50592;BME280;36548;50.506;30.834;2023-02-19T07:05:23;99039.92;;;7.45;50.31
50592;BME280;36548;50.506;30.834;2023-02-19T07:06:33;99044.42;;;7.44;50.23
50592;BME280;36548;50.506;30.834;2023-02-19T07:07:44;99040.03;;;7.43;50.33
50592;BME280;36548;50.506;30.834;2023-02-19T07:08:55;99039.39;;;7.40;50.53
50592;BME280;36548;50.506;30.834;2023-02-19T07:10:05;99036.94;;;7.37;50.38
50592;BME280;36548;50.506;30.834;2023-02-19T07:11:13;99034.50;;;7.33;50.70